sensor_id;sensor_type;location;lat;lon;timestamp;temperature;humidity
25937;DHT22;13733;51.178;4.450;2022-10-15T00:00:53;14.50;99.90
25937;DHT22;13733;51.178;4.450;2022-10-15T00:03:18;14.60;99.90
25937;DHT22;13733;51.178;4.450;2022-10-15T00:05:44;14.50;99.90
25937;DHT22;13733;51.178;4.450;2022-10-15T00:08:10;14.40;99.90
25937;DHT22;13733;51.178;4.450;2022-10-15T00:10:36;14.40;99.90
25937;DHT22;13733;51.178;4.450;2022-10-15T00:13:03;14.50;99.90
25937;DHT22;13733;51.178;4.450;2022-10-15T00:15:29;14.50;99.90
25937;DHT22;13733;51.178;4.450;2022-10-15T00:17:57;14.60;99.90
25937;DHT22;13733;51.178;4.450;2022-10-15T00:20:22;14.60;99.90
25937;DHT22;13733;51.178;4.450;2022-10-15T00:22:49;14.50;99.90
25937;DHT22;13733;51.178;4.450;2022-10-15T00:25:15;14.50;99.90
25937;DHT22;13733;51.178;4.450;2022-10-15T00:27:41;14.50;99.90
25937;DHT22;13733;51.178;4.450;2022-10-15T00:30:07;14.60;99.90
25937;DHT22;13733;51.178;4.450;2022-10-15T00:32:33;14.60;99.90
25937;DHT22;13733;51.178;4.450;2022-10-15T00:34:58;14.60;99.90
25937;DHT22;13733;51.178;4.450;2022-10-15T00:37:24;14.60;99.90
25937;DHT22;13733;51.178;4.450;2022-10-15T00:39:50;14.70;99.90
25937;DHT22;13733;51.178;4.450;2022-10-15T00:42:16;14.70;99.90
25937;DHT22;13733;51.178;4.450;2022-10-15T00:44:46;14.70;99.90
25937;DHT22;13733;51.178;4.450;2022-10-15T00:47:26;14.60;99.90
25937;DHT22;13733;51.178;4.450;2022-10-15T00:53:04;14.90;99.90
25937;DHT22;13733;51.178;4.450;2022-10-15T00:55:34;15.00;99.90
25937;DHT22;13733;51.178;4.450;2022-10-15T00:58:05;14.90;99.90
25937;DHT22;13733;51.178;4.450;2022-10-15T01:00:31;14.80;99.90
25937;DHT22;13733;51.178;4.450;2022-10-15T01:02:58;14.80;99.90
25937;DHT22;13733;51.178;4.450;2022-10-15T01:05:24;14.90;99.90
25937;DHT22;13733;51.178;4.450;2022-10-15T01:07:50;14.70;99.90
25937;DHT22;13733;51.178;4.450;2022-10-15T01:10:17;14.70;99.90
25937;DHT22;13733;51.178;4.450;2022-10-15T01:15:48;14.80;99.90
25937;DHT22;13733;51.178;4.450;2022-10-15T01:18:44;14.70;99.90
25937;DHT22;13733;51.178;4.450;2022-10-15T01:34:52;14.50;99.90
25937;DHT22;13733;51.178;4.450;2022-10-15T01:40:30;14.50;99.90
25937;DHT22;13733;51.178;4.450;2022-10-15T01:42:57;14.40;99.90
25937;DHT22;13733;51.178;4.450;2022-10-15T01:45:35;14.40;99.90
25937;DHT22;13733;51.178;4.450;2022-10-15T01:48:12;14.40;99.90
25937;DHT22;13733;51.178;4.450;2022-10-15T01:50:41;14.50;99.90
25937;DHT22;13733;51.178;4.450;2022-10-15T01:53:10;14.40;99.90
25937;DHT22;13733;51.178;4.450;2022-10-15T01:55:41;14.40;99.90
25937;DHT22;13733;51.178;4.450;2022-10-15T01:58:09;14.40;99.90
25937;DHT22;13733;51.178;4.450;2022-10-15T02:00:36;14.40;99.90
25937;DHT22;13733;51.178;4.450;2022-10-15T02:03:03;14.50;99.90
25937;DHT22;13733;51.178;4.450;2022-10-15T02:05:32;14.50;99.90
25937;DHT22;13733;51.178;4.450;2022-10-15T02:13:33;14.60;99.90
25937;DHT22;13733;51.178;4.450;2022-10-15T02:18:48;14.80;99.90
25937;DHT22;13733;51.178;4.450;2022-10-15T02:24:24;14.60;99.90
25937;DHT22;13733;51.178;4.450;2022-10-15T02:26:56;14.40;99.90
25937;DHT22;13733;51.178;4.450;2022-10-15T02:29:24;14.40;99.90
25937;DHT22;13733;51.178;4.450;2022-10-15T02:31:52;14.40;99.90
25937;DHT22;13733;51.178;4.450;2022-10-15T02:34:22;14.40;99.90
25937;DHT22;13733;51.178;4.450;2022-10-15T02:36:50;14.40;99.90
25937;DHT22;13733;51.178;4.450;2022-10-15T02:39:20;14.40;99.90
25937;DHT22;13733;51.178;4.450;2022-10-15T02:41:47;14.40;99.90
25937;DHT22;13733;51.178;4.450;2022-10-15T02:44:13;14.50;99.90
25937;DHT22;13733;51.178;4.450;2022-10-15T02:46:39;14.50;99.90
25937;DHT22;13733;51.178;4.450;2022-10-15T02:49:05;14.50;99.90
25937;DHT22;13733;51.178;4.450;2022-10-15T02:51:32;14.30;99.90
25937;DHT22;13733;51.178;4.450;2022-10-15T02:53:59;14.30;99.90
25937;DHT22;13733;51.178;4.450;2022-10-15T02:56:25;14.40;99.90
25937;DHT22;13733;51.178;4.450;2022-10-15T02:58:51;14.40;99.90
25937;DHT22;13733;51.178;4.450;2022-10-15T03:01:18;14.20;99.90
25937;DHT22;13733;51.178;4.450;2022-10-15T03:03:45;14.20;99.90
25937;DHT22;13733;51.178;4.450;2022-10-15T03:06:11;14.30;99.90
25937;DHT22;13733;51.178;4.450;2022-10-15T03:08:37;14.20;99.90
25937;DHT22;13733;51.178;4.450;2022-10-15T03:11:04;14.10;99.90
25937;DHT22;13733;51.178;4.450;2022-10-15T03:13:30;14.10;99.90
25937;DHT22;13733;51.178;4.450;2022-10-15T03:16:06;14.10;99.90
25937;DHT22;13733;51.178;4.450;2022-10-15T03:18:33;14.10;99.90
25937;DHT22;13733;51.178;4.450;2022-10-15T03:21:01;14.10;99.90
25937;DHT22;13733;51.178;4.450;2022-10-15T03:23:28;14.10;99.90
25937;DHT22;13733;51.178;4.450;2022-10-15T03:26:06;14.10;99.90
25937;DHT22;13733;51.178;4.450;2022-10-15T03:28:32;14.10;99.90
25937;DHT22;13733;51.178;4.450;2022-10-15T03:30:59;14.20;99.90
25937;DHT22;13733;51.178;4.450;2022-10-15T03:33:25;14.20;99.90
25937;DHT22;13733;51.178;4.450;2022-10-15T03:35:51;14.20;99.90
25937;DHT22;13733;51.178;4.450;2022-10-15T03:38:17;14.10;99.90
25937;DHT22;13733;51.178;4.450;2022-10-15T03:40:44;14.30;99.90
25937;DHT22;13733;51.178;4.450;2022-10-15T03:43:27;14.20;99.90
25937;DHT22;13733;51.178;4.450;2022-10-15T03:45:53;14.10;99.90
25937;DHT22;13733;51.178;4.450;2022-10-15T03:48:22;14.00;99.90
25937;DHT22;13733;51.178;4.450;2022-10-15T03:50:47;13.90;99.90
25937;DHT22;13733;51.178;4.450;2022-10-15T03:53:14;13.90;99.90
25937;DHT22;13733;51.178;4.450;2022-10-15T03:55:40;13.80;99.90
25937;DHT22;13733;51.178;4.450;2022-10-15T03:58:07;14.00;99.90
25937;DHT22;13733;51.178;4.450;2022-10-15T04:00:39;13.90;99.90
25937;DHT22;13733;51.178;4.450;2022-10-15T04:03:05;13.90;99.90
25937;DHT22;13733;51.178;4.450;2022-10-15T04:05:32;13.80;99.90
25937;DHT22;13733;51.178;4.450;2022-10-15T04:08:02;13.90;99.90
25937;DHT22;13733;51.178;4.450;2022-10-15T04:10:31;13.90;99.90
25937;DHT22;13733;51.178;4.450;2022-10-15T04:12:58;13.80;99.90
25937;DHT22;13733;51.178;4.450;2022-10-15T04:15:25;13.80;99.90
25937;DHT22;13733;51.178;4.450;2022-10-15T04:17:56;13.80;99.90
25937;DHT22;13733;51.178;4.450;2022-10-15T04:20:24;13.70;99.90
25937;DHT22;13733;51.178;4.450;2022-10-15T04:22:50;13.60;99.90
25937;DHT22;13733;51.178;4.450;2022-10-15T04:25:16;13.60;99.90
25937;DHT22;13733;51.178;4.450;2022-10-15T04:27:42;13.60;99.90
25937;DHT22;13733;51.178;4.450;2022-10-15T04:30:12;13.70;99.90
25937;DHT22;13733;51.178;4.450;2022-10-15T04:32:43;13.60;99.90
25937;DHT22;13733;51.178;4.450;2022-10-15T04:35:09;13.60;99.90
25937;DHT22;13733;51.178;4.450;2022-10-15T04:38:05;13.60;99.90
25937;DHT22;13733;51.178;4.450;2022-10-15T04:40:59;13.60;99.90
25937;DHT22;13733;51.178;4.450;2022-10-15T04:43:32;13.60;99.90
25937;DHT22;13733;51.178;4.450;2022-10-15T04:46:04;13.60;99.90
25937;DHT22;13733;51.178;4.450;2022-10-15T04:48:32;13.70;99.90
25937;DHT22;13733;51.178;4.450;2022-10-15T04:51:04;13.70;99.90
25937;DHT22;13733;51.178;4.450;2022-10-15T04:53:42;13.80;99.90
25937;DHT22;13733;51.178;4.450;2022-10-15T04:56:11;13.90;99.90
25937;DHT22;13733;51.178;4.450;2022-10-15T04:58:44;14.00;99.90
25937;DHT22;13733;51.178;4.450;2022-10-15T05:01:12;14.00;99.90
25937;DHT22;13733;51.178;4.450;2022-10-15T05:03:52;14.00;99.90
25937;DHT22;13733;51.178;4.450;2022-10-15T05:06:19;14.10;99.90
25937;DHT22;13733;51.178;4.450;2022-10-15T05:08:47;14.10;99.90
25937;DHT22;13733;51.178;4.450;2022-10-15T05:11:21;14.10;99.90
25937;DHT22;13733;51.178;4.450;2022-10-15T05:13:49;14.10;99.90
25937;DHT22;13733;51.178;4.450;2022-10-15T05:16:19;14.10;99.90
25937;DHT22;13733;51.178;4.450;2022-10-15T05:18:48;14.10;99.90
25937;DHT22;13733;51.178;4.450;2022-10-15T05:21:15;14.00;99.90
25937;DHT22;13733;51.178;4.450;2022-10-15T05:23:44;14.10;99.90
25937;DHT22;13733;51.178;4.450;2022-10-15T05:26:31;14.10;99.90
25937;DHT22;13733;51.178;4.450;2022-10-15T05:28:58;14.10;99.90
25937;DHT22;13733;51.178;4.450;2022-10-15T05:31:30;14.10;99.90
25937;DHT22;13733;51.178;4.450;2022-10-15T05:34:19;14.10;99.90
25937;DHT22;13733;51.178;4.450;2022-10-15T05:36:56;14.10;99.90
25937;DHT22;13733;51.178;4.450;2022-10-15T05:39:22;14.20;99.90
25937;DHT22;13733;51.178;4.450;2022-10-15T05:41:49;14.20;99.90
25937;DHT22;13733;51.178;4.450;2022-10-15T05:44:15;14.10;99.90
25937;DHT22;13733;51.178;4.450;2022-10-15T05:46:41;14.10;99.90
25937;DHT22;13733;51.178;4.450;2022-10-15T05:49:08;14.00;99.90
25937;DHT22;13733;51.178;4.450;2022-10-15T05:51:45;14.00;99.90
25937;DHT22;13733;51.178;4.450;2022-10-15T05:54:19;14.00;99.90
25937;DHT22;13733;51.178;4.450;2022-10-15T05:56:45;14.00;99.90
25937;DHT22;13733;51.178;4.450;2022-10-15T05:59:10;14.10;99.90
25937;DHT22;13733;51.178;4.450;2022-10-15T06:01:36;14.10;99.90
25937;DHT22;13733;51.178;4.450;2022-10-15T06:04:02;14.10;99.90
25937;DHT22;13733;51.178;4.450;2022-10-15T06:06:29;14.20;99.90
25937;DHT22;13733;51.178;4.450;2022-10-15T06:08:57;14.10;99.90
25937;DHT22;13733;51.178;4.450;2022-10-15T06:11:23;14.10;99.90
25937;DHT22;13733;51.178;4.450;2022-10-15T06:13:49;14.10;99.90
25937;DHT22;13733;51.178;4.450;2022-10-15T06:16:15;14.10;99.90
25937;DHT22;13733;51.178;4.450;2022-10-15T06:18:41;14.20;99.90
25937;DHT22;13733;51.178;4.450;2022-10-15T06:21:08;14.20;99.90
25937;DHT22;13733;51.178;4.450;2022-10-15T06:23:34;14.30;99.90
25937;DHT22;13733;51.178;4.450;2022-10-15T06:26:02;14.40;99.90
25937;DHT22;13733;51.178;4.450;2022-10-15T06:28:28;14.50;99.90
25937;DHT22;13733;51.178;4.450;2022-10-15T06:30:57;14.40;99.90
25937;DHT22;13733;51.178;4.450;2022-10-15T06:33:23;14.50;99.90
25937;DHT22;13733;51.178;4.450;2022-10-15T06:35:49;14.60;99.90
25937;DHT22;13733;51.178;4.450;2022-10-15T06:38:15;14.60;99.90
25937;DHT22;13733;51.178;4.450;2022-10-15T06:40:41;14.70;99.90
25937;DHT22;13733;51.178;4.450;2022-10-15T06:43:08;14.70;99.90
25937;DHT22;13733;51.178;4.450;2022-10-15T06:45:39;14.70;99.90
25937;DHT22;13733;51.178;4.450;2022-10-15T06:48:15;14.70;99.90
25937;DHT22;13733;51.178;4.450;2022-10-15T06:50:41;14.80;99.90
25937;DHT22;13733;51.178;4.450;2022-10-15T06:53:07;14.90;99.90
25937;DHT22;13733;51.178;4.450;2022-10-15T06:55:33;14.90;99.90
25937;DHT22;13733;51.178;4.450;2022-10-15T06:58:00;14.90;99.90
25937;DHT22;13733;51.178;4.450;2022-10-15T07:00:27;15.00;99.90
25937;DHT22;13733;51.178;4.450;2022-10-15T07:02:53;15.10;99.90
25937;DHT22;13733;51.178;4.450;2022-10-15T07:05:19;15.10;99.90
25937;DHT22;13733;51.178;4.450;2022-10-15T07:07:52;15.10;99.90
25937;DHT22;13733;51.178;4.450;2022-10-15T07:10:19;15.30;99.90
25937;DHT22;13733;51.178;4.450;2022-10-15T07:12:45;15.30;99.90
25937;DHT22;13733;51.178;4.450;2022-10-15T07:15:11;15.20;99.90
25937;DHT22;13733;51.178;4.450;2022-10-15T07:17:36;15.30;99.90
25937;DHT22;13733;51.178;4.450;2022-10-15T07:20:04;15.30;99.90
25937;DHT22;13733;51.178;4.450;2022-10-15T07:22:30;15.20;99.90
25937;DHT22;13733;51.178;4.450;2022-10-15T07:24:56;15.30;99.90
25937;DHT22;13733;51.178;4.450;2022-10-15T07:27:22;15.40;99.90
25937;DHT22;13733;51.178;4.450;2022-10-15T07:29:49;15.50;99.90
25937;DHT22;13733;51.178;4.450;2022-10-15T07:32:15;15.40;99.90
25937;DHT22;13733;51.178;4.450;2022-10-15T07:34:41;15.50;99.90
25937;DHT22;13733;51.178;4.450;2022-10-15T07:37:07;15.40;99.90
25937;DHT22;13733;51.178;4.450;2022-10-15T07:39:33;15.50;99.90
25937;DHT22;13733;51.178;4.450;2022-10-15T07:41:58;15.40;99.90
25937;DHT22;13733;51.178;4.450;2022-10-15T07:44:24;15.50;99.90
25937;DHT22;13733;51.178;4.450;2022-10-15T07:46:50;15.60;99.90
25937;DHT22;13733;51.178;4.450;2022-10-15T07:49:16;15.70;99.90
25937;DHT22;13733;51.178;4.450;2022-10-15T07:51:44;15.90;99.90
25937;DHT22;13733;51.178;4.450;2022-10-15T07:54:09;15.90;99.90
25937;DHT22;13733;51.178;4.450;2022-10-15T07:56:35;15.90;99.90
25937;DHT22;13733;51.178;4.450;2022-10-15T07:59:01;15.80;99.90
25937;DHT22;13733;51.178;4.450;2022-10-15T08:01:27;15.80;99.90
25937;DHT22;13733;51.178;4.450;2022-10-15T08:03:53;15.80;99.90
25937;DHT22;13733;51.178;4.450;2022-10-15T08:06:18;15.80;99.90
25937;DHT22;13733;51.178;4.450;2022-10-15T08:08:44;15.80;99.90
25937;DHT22;13733;51.178;4.450;2022-10-15T08:11:13;15.90;99.90
25937;DHT22;13733;51.178;4.450;2022-10-15T08:13:41;15.80;99.90
25937;DHT22;13733;51.178;4.450;2022-10-15T08:16:09;16.00;99.90
25937;DHT22;13733;51.178;4.450;2022-10-15T08:18:35;15.90;99.90
25937;DHT22;13733;51.178;4.450;2022-10-15T08:21:03;16.10;99.90
25937;DHT22;13733;51.178;4.450;2022-10-15T08:23:30;16.00;99.90
25937;DHT22;13733;51.178;4.450;2022-10-15T08:25:57;16.00;99.90
25937;DHT22;13733;51.178;4.450;2022-10-15T08:28:25;16.00;99.90
25937;DHT22;13733;51.178;4.450;2022-10-15T08:30:51;16.00;99.90
25937;DHT22;13733;51.178;4.450;2022-10-15T08:33:17;16.00;99.90
25937;DHT22;13733;51.178;4.450;2022-10-15T08:35:42;16.10;99.90
25937;DHT22;13733;51.178;4.450;2022-10-15T08:38:11;16.10;99.90
25937;DHT22;13733;51.178;4.450;2022-10-15T08:40:37;16.10;99.90
25937;DHT22;13733;51.178;4.450;2022-10-15T08:43:36;16.10;99.90
25937;DHT22;13733;51.178;4.450;2022-10-15T08:46:15;16.10;99.90
25937;DHT22;13733;51.178;4.450;2022-10-15T08:48:49;16.20;99.90
25937;DHT22;13733;51.178;4.450;2022-10-15T08:51:29;16.20;99.90
25937;DHT22;13733;51.178;4.450;2022-10-15T08:53:59;16.20;99.90
25937;DHT22;13733;51.178;4.450;2022-10-15T08:56:31;16.30;99.90
25937;DHT22;13733;51.178;4.450;2022-10-15T09:02:12;16.40;99.90
25937;DHT22;13733;51.178;4.450;2022-10-15T09:04:53;16.40;99.90
25937;DHT22;13733;51.178;4.450;2022-10-15T09:16:00;16.20;99.90
25937;DHT22;13733;51.178;4.450;2022-10-15T09:18:31;16.40;99.90
25937;DHT22;13733;51.178;4.450;2022-10-15T09:20:58;16.40;99.90
25937;DHT22;13733;51.178;4.450;2022-10-15T09:23:26;16.50;99.90
25937;DHT22;13733;51.178;4.450;2022-10-15T09:28:25;16.70;99.90
25937;DHT22;13733;51.178;4.450;2022-10-15T09:30:55;16.60;99.90
25937;DHT22;13733;51.178;4.450;2022-10-15T09:33:28;16.70;99.90
25937;DHT22;13733;51.178;4.450;2022-10-15T09:38:58;16.80;99.90
25937;DHT22;13733;51.178;4.450;2022-10-15T09:44:23;17.00;99.90
25937;DHT22;13733;51.178;4.450;2022-10-15T09:46:52;17.00;99.90
25937;DHT22;13733;51.178;4.450;2022-10-15T09:49:25;17.10;99.90
25937;DHT22;13733;51.178;4.450;2022-10-15T09:52:04;17.30;99.90
25937;DHT22;13733;51.178;4.450;2022-10-15T09:55:24;17.40;99.90
25937;DHT22;13733;51.178;4.450;2022-10-15T09:57:25;17.50;99.90
25937;DHT22;13733;51.178;4.450;2022-10-15T09:59:53;17.40;99.90
25937;DHT22;13733;51.178;4.450;2022-10-15T10:02:21;17.50;99.90
25937;DHT22;13733;51.178;4.450;2022-10-15T10:04:47;17.60;99.90
25937;DHT22;13733;51.178;4.450;2022-10-15T10:07:34;17.80;99.90
25937;DHT22;13733;51.178;4.450;2022-10-15T10:10:26;17.90;99.90
25937;DHT22;13733;51.178;4.450;2022-10-15T10:12:55;17.80;99.90
25937;DHT22;13733;51.178;4.450;2022-10-15T10:15:38;17.90;99.90
25937;DHT22;13733;51.178;4.450;2022-10-15T10:18:08;18.00;99.90
25937;DHT22;13733;51.178;4.450;2022-10-15T10:20:53;18.00;99.90
25937;DHT22;13733;51.178;4.450;2022-10-15T10:23:22;18.00;99.90
25937;DHT22;13733;51.178;4.450;2022-10-15T10:25:50;18.20;99.90
25937;DHT22;13733;51.178;4.450;2022-10-15T10:29:01;18.10;99.90
25937;DHT22;13733;51.178;4.450;2022-10-15T10:31:09;18.30;99.90
25937;DHT22;13733;51.178;4.450;2022-10-15T10:36:19;17.80;99.90
25937;DHT22;13733;51.178;4.450;2022-10-15T10:39:01;17.80;99.90
25937;DHT22;13733;51.178;4.450;2022-10-15T10:41:51;18.00;99.90
25937;DHT22;13733;51.178;4.450;2022-10-15T10:44:29;18.20;99.90
25937;DHT22;13733;51.178;4.450;2022-10-15T10:47:02;18.20;99.90
25937;DHT22;13733;51.178;4.450;2022-10-15T10:49:37;18.30;99.90
25937;DHT22;13733;51.178;4.450;2022-10-15T10:52:36;18.50;99.90
25937;DHT22;13733;51.178;4.450;2022-10-15T10:55:06;18.40;99.90
25937;DHT22;13733;51.178;4.450;2022-10-15T10:57:47;18.50;99.90
25937;DHT22;13733;51.178;4.450;2022-10-15T11:02:52;18.80;99.90
25937;DHT22;13733;51.178;4.450;2022-10-15T11:05:26;18.80;99.90
25937;DHT22;13733;51.178;4.450;2022-10-15T11:10:40;19.00;99.90
25937;DHT22;13733;51.178;4.450;2022-10-15T11:16:34;19.00;99.90
25937;DHT22;13733;51.178;4.450;2022-10-15T11:22:07;19.40;99.90
25937;DHT22;13733;51.178;4.450;2022-10-15T11:29:54;19.90;99.90
25937;DHT22;13733;51.178;4.450;2022-10-15T11:43:36;19.90;99.90
25937;DHT22;13733;51.178;4.450;2022-10-15T11:57:07;21.00;99.90
25937;DHT22;13733;51.178;4.450;2022-10-15T12:00:18;21.00;99.90
25937;DHT22;13733;51.178;4.450;2022-10-15T12:02:30;21.30;99.90
25937;DHT22;13733;51.178;4.450;2022-10-15T12:05:05;20.90;99.90
25937;DHT22;13733;51.178;4.450;2022-10-15T12:07:43;21.20;99.90
25937;DHT22;13733;51.178;4.450;2022-10-15T12:15:45;22.40;99.90
25937;DHT22;13733;51.178;4.450;2022-10-15T12:20:49;21.80;99.90
25937;DHT22;13733;51.178;4.450;2022-10-15T12:28:52;24.00;99.90
25937;DHT22;13733;51.178;4.450;2022-10-15T12:31:19;24.50;99.90
25937;DHT22;13733;51.178;4.450;2022-10-15T12:33:56;24.10;99.90
25937;DHT22;13733;51.178;4.450;2022-10-15T12:36:25;23.90;99.90
25937;DHT22;13733;51.178;4.450;2022-10-15T12:39:06;24.30;99.90
25937;DHT22;13733;51.178;4.450;2022-10-15T12:41:45;24.00;99.90
25937;DHT22;13733;51.178;4.450;2022-10-15T12:44:29;23.40;99.90
25937;DHT22;13733;51.178;4.450;2022-10-15T12:46:56;22.10;99.90
25937;DHT22;13733;51.178;4.450;2022-10-15T12:51:54;21.20;99.90
25937;DHT22;13733;51.178;4.450;2022-10-15T12:54:41;21.10;99.90
25937;DHT22;13733;51.178;4.450;2022-10-15T12:59:58;20.80;99.90
25937;DHT22;13733;51.178;4.450;2022-10-15T13:02:37;20.60;99.90
25937;DHT22;13733;51.178;4.450;2022-10-15T13:05:05;20.80;99.90
25937;DHT22;13733;51.178;4.450;2022-10-15T13:07:36;21.10;99.90
25937;DHT22;13733;51.178;4.450;2022-10-15T13:10:04;21.80;99.90
25937;DHT22;13733;51.178;4.450;2022-10-15T13:12:41;21.80;99.90
25937;DHT22;13733;51.178;4.450;2022-10-15T13:15:13;21.70;99.90
25937;DHT22;13733;51.178;4.450;2022-10-15T13:17:39;21.50;99.90
25937;DHT22;13733;51.178;4.450;2022-10-15T13:20:07;20.90;99.90
25937;DHT22;13733;51.178;4.450;2022-10-15T13:22:48;20.80;99.90
25937;DHT22;13733;51.178;4.450;2022-10-15T13:25:18;21.50;99.90
25937;DHT22;13733;51.178;4.450;2022-10-15T13:27:44;21.90;99.90
25937;DHT22;13733;51.178;4.450;2022-10-15T13:30:16;23.00;98.10
25937;DHT22;13733;51.178;4.450;2022-10-15T13:32:46;23.60;94.60
25937;DHT22;13733;51.178;4.450;2022-10-15T13:35:18;23.30;96.10
25937;DHT22;13733;51.178;4.450;2022-10-15T13:37:44;23.50;96.70
25937;DHT22;13733;51.178;4.450;2022-10-15T13:40:31;23.50;95.40
25937;DHT22;13733;51.178;4.450;2022-10-15T13:43:02;24.00;94.00
25937;DHT22;13733;51.178;4.450;2022-10-15T13:45:29;23.60;94.80
25937;DHT22;13733;51.178;4.450;2022-10-15T13:47:55;23.10;96.70
25937;DHT22;13733;51.178;4.450;2022-10-15T13:50:28;23.00;98.20
25937;DHT22;13733;51.178;4.450;2022-10-15T13:55:25;23.10;98.00
25937;DHT22;13733;51.178;4.450;2022-10-15T14:00:40;24.10;96.10
25937;DHT22;13733;51.178;4.450;2022-10-15T14:05:46;24.30;93.50
25937;DHT22;13733;51.178;4.450;2022-10-15T14:08:20;24.30;94.40
25937;DHT22;13733;51.178;4.450;2022-10-15T14:10:47;24.60;92.70
25937;DHT22;13733;51.178;4.450;2022-10-15T14:13:13;24.70;92.90
25937;DHT22;13733;51.178;4.450;2022-10-15T14:15:50;24.30;93.40
25937;DHT22;13733;51.178;4.450;2022-10-15T14:18:32;23.90;95.20
25937;DHT22;13733;51.178;4.450;2022-10-15T14:20:59;23.30;96.60
25937;DHT22;13733;51.178;4.450;2022-10-15T14:23:27;22.40;99.40
25937;DHT22;13733;51.178;4.450;2022-10-15T14:25:55;21.80;99.90
25937;DHT22;13733;51.178;4.450;2022-10-15T14:28:22;21.80;99.90
25937;DHT22;13733;51.178;4.450;2022-10-15T14:30:49;21.70;99.90
25937;DHT22;13733;51.178;4.450;2022-10-15T14:33:51;21.70;99.90
25937;DHT22;13733;51.178;4.450;2022-10-15T14:36:24;21.70;99.90
25937;DHT22;13733;51.178;4.450;2022-10-15T14:38:51;21.50;99.90
25937;DHT22;13733;51.178;4.450;2022-10-15T14:41:24;21.50;99.90
25937;DHT22;13733;51.178;4.450;2022-10-15T14:44:03;21.40;99.90
25937;DHT22;13733;51.178;4.450;2022-10-15T14:46:42;21.30;99.90
25937;DHT22;13733;51.178;4.450;2022-10-15T14:49:32;21.20;99.90
25937;DHT22;13733;51.178;4.450;2022-10-15T14:54:35;21.30;99.90
25937;DHT22;13733;51.178;4.450;2022-10-15T14:57:02;21.20;99.90
25937;DHT22;13733;51.178;4.450;2022-10-15T14:59:32;21.00;99.90
25937;DHT22;13733;51.178;4.450;2022-10-15T15:02:01;20.90;99.90
25937;DHT22;13733;51.178;4.450;2022-10-15T15:04:37;20.90;99.90
25937;DHT22;13733;51.178;4.450;2022-10-15T15:07:12;20.70;99.90
25937;DHT22;13733;51.178;4.450;2022-10-15T15:09:38;20.60;99.90
25937;DHT22;13733;51.178;4.450;2022-10-15T15:12:13;20.70;99.90
25937;DHT22;13733;51.178;4.450;2022-10-15T15:14:40;20.60;99.90
25937;DHT22;13733;51.178;4.450;2022-10-15T15:17:07;20.60;99.90
25937;DHT22;13733;51.178;4.450;2022-10-15T15:19:34;20.40;99.90
25937;DHT22;13733;51.178;4.450;2022-10-15T15:22:00;20.40;99.90
25937;DHT22;13733;51.178;4.450;2022-10-15T15:24:25;20.40;99.90
25937;DHT22;13733;51.178;4.450;2022-10-15T15:26:52;20.30;99.90
25937;DHT22;13733;51.178;4.450;2022-10-15T15:29:19;20.40;99.90
25937;DHT22;13733;51.178;4.450;2022-10-15T15:31:46;20.30;99.90
25937;DHT22;13733;51.178;4.450;2022-10-15T15:34:12;20.20;99.90
25937;DHT22;13733;51.178;4.450;2022-10-15T15:36:38;20.50;99.90
25937;DHT22;13733;51.178;4.450;2022-10-15T15:39:04;21.50;99.90
25937;DHT22;13733;51.178;4.450;2022-10-15T15:41:29;22.20;99.90
25937;DHT22;13733;51.178;4.450;2022-10-15T15:43:55;21.90;99.90
25937;DHT22;13733;51.178;4.450;2022-10-15T15:46:21;21.70;99.90
25937;DHT22;13733;51.178;4.450;2022-10-15T15:48:47;21.50;99.90
25937;DHT22;13733;51.178;4.450;2022-10-15T15:51:25;21.00;99.90
25937;DHT22;13733;51.178;4.450;2022-10-15T15:53:52;20.60;99.90
25937;DHT22;13733;51.178;4.450;2022-10-15T15:56:18;20.40;99.90
25937;DHT22;13733;51.178;4.450;2022-10-15T15:58:44;20.40;99.90
25937;DHT22;13733;51.178;4.450;2022-10-15T16:01:10;20.10;99.90
25937;DHT22;13733;51.178;4.450;2022-10-15T16:03:36;20.00;99.90
25937;DHT22;13733;51.178;4.450;2022-10-15T16:06:04;19.70;99.90
25937;DHT22;13733;51.178;4.450;2022-10-15T16:08:30;19.50;99.90
25937;DHT22;13733;51.178;4.450;2022-10-15T16:11:00;19.40;99.90
25937;DHT22;13733;51.178;4.450;2022-10-15T16:13:26;19.60;99.90
25937;DHT22;13733;51.178;4.450;2022-10-15T16:15:52;19.60;99.90
25937;DHT22;13733;51.178;4.450;2022-10-15T16:18:18;19.50;99.90
25937;DHT22;13733;51.178;4.450;2022-10-15T16:20:45;19.50;99.90
25937;DHT22;13733;51.178;4.450;2022-10-15T16:23:11;19.40;99.90
25937;DHT22;13733;51.178;4.450;2022-10-15T16:25:36;19.10;99.90
25937;DHT22;13733;51.178;4.450;2022-10-15T16:28:02;18.90;99.90
25937;DHT22;13733;51.178;4.450;2022-10-15T16:30:28;18.80;99.90
25937;DHT22;13733;51.178;4.450;2022-10-15T16:32:54;18.50;99.90
25937;DHT22;13733;51.178;4.450;2022-10-15T16:35:20;18.30;99.90
25937;DHT22;13733;51.178;4.450;2022-10-15T16:37:45;18.40;99.90
25937;DHT22;13733;51.178;4.450;2022-10-15T16:40:12;18.40;99.90
25937;DHT22;13733;51.178;4.450;2022-10-15T16:42:39;18.40;99.90
25937;DHT22;13733;51.178;4.450;2022-10-15T16:45:05;18.10;99.90
25937;DHT22;13733;51.178;4.450;2022-10-15T16:47:33;18.20;99.90
25937;DHT22;13733;51.178;4.450;2022-10-15T16:49:58;18.10;99.90
25937;DHT22;13733;51.178;4.450;2022-10-15T16:52:25;18.00;99.90
25937;DHT22;13733;51.178;4.450;2022-10-15T16:54:50;18.10;99.90
25937;DHT22;13733;51.178;4.450;2022-10-15T16:57:16;18.00;99.90
25937;DHT22;13733;51.178;4.450;2022-10-15T16:59:42;17.90;99.90
25937;DHT22;13733;51.178;4.450;2022-10-15T17:02:08;17.90;99.90
25937;DHT22;13733;51.178;4.450;2022-10-15T17:04:34;17.60;99.90
25937;DHT22;13733;51.178;4.450;2022-10-15T17:07:00;17.40;99.90
25937;DHT22;13733;51.178;4.450;2022-10-15T17:09:27;17.20;99.90
25937;DHT22;13733;51.178;4.450;2022-10-15T17:11:53;17.20;99.90
25937;DHT22;13733;51.178;4.450;2022-10-15T17:14:19;17.00;99.90
25937;DHT22;13733;51.178;4.450;2022-10-15T17:16:50;16.90;99.90
25937;DHT22;13733;51.178;4.450;2022-10-15T17:19:17;16.90;99.90
25937;DHT22;13733;51.178;4.450;2022-10-15T17:21:43;16.80;99.90
25937;DHT22;13733;51.178;4.450;2022-10-15T17:24:11;16.80;99.90
25937;DHT22;13733;51.178;4.450;2022-10-15T17:26:38;16.90;99.90
25937;DHT22;13733;51.178;4.450;2022-10-15T17:29:09;16.80;99.90
25937;DHT22;13733;51.178;4.450;2022-10-15T17:31:35;16.70;99.90
25937;DHT22;13733;51.178;4.450;2022-10-15T17:34:04;16.60;99.90
25937;DHT22;13733;51.178;4.450;2022-10-15T17:36:31;16.70;99.90
25937;DHT22;13733;51.178;4.450;2022-10-15T17:39:00;16.60;99.90
25937;DHT22;13733;51.178;4.450;2022-10-15T17:41:28;16.50;99.90
25937;DHT22;13733;51.178;4.450;2022-10-15T17:43:54;16.50;99.90
25937;DHT22;13733;51.178;4.450;2022-10-15T17:46:27;16.40;99.90
25937;DHT22;13733;51.178;4.450;2022-10-15T17:48:55;16.50;99.90
25937;DHT22;13733;51.178;4.450;2022-10-15T17:51:24;16.60;99.90